sensor_id;sensor_type;location;lat;lon;timestamp;P1;durP1;ratioP1;P2;durP2;ratioP2
48623;SDS011;34422;45.802;16.114;2023-04-05T00:02:14;8.52;;;4.28;;
48623;SDS011;34422;45.802;16.114;2023-04-05T00:04:44;8.13;;;4.25;;
48623;SDS011;34422;45.802;16.114;2023-04-05T00:07:16;8.13;;;4.03;;
48623;SDS011;34422;45.802;16.114;2023-04-05T00:09:44;8.10;;;4.55;;
48623;SDS011;34422;45.802;16.114;2023-04-05T00:12:11;12.20;;;5.15;;
48623;SDS011;34422;45.802;16.114;2023-04-05T00:14:38;10.70;;;4.85;;
48623;SDS011;34422;45.802;16.114;2023-04-05T00:17:05;8.55;;;4.35;;
48623;SDS011;34422;45.802;16.114;2023-04-05T00:19:32;8.45;;;4.03;;
48623;SDS011;34422;45.802;16.114;2023-04-05T00:22:00;9.98;;;4.50;;
48623;SDS011;34422;45.802;16.114;2023-04-05T00:24:27;7.45;;;3.35;;
48623;SDS011;34422;45.802;16.114;2023-04-05T00:26:55;9.13;;;4.40;;
48623;SDS011;34422;45.802;16.114;2023-04-05T00:29:22;7.88;;;4.07;;
48623;SDS011;34422;45.802;16.114;2023-04-05T00:31:48;6.47;;;3.45;;
48623;SDS011;34422;45.802;16.114;2023-04-05T00:34:15;7.22;;;4.45;;
48623;SDS011;34422;45.802;16.114;2023-04-05T00:36:42;7.93;;;3.88;;
48623;SDS011;34422;45.802;16.114;2023-04-05T00:39:09;9.82;;;4.28;;
48623;SDS011;34422;45.802;16.114;2023-04-05T00:41:36;6.93;;;4.13;;
48623;SDS011;34422;45.802;16.114;2023-04-05T00:44:02;8.13;;;3.92;;
48623;SDS011;34422;45.802;16.114;2023-04-05T00:46:30;8.50;;;4.75;;
48623;SDS011;34422;45.802;16.114;2023-04-05T00:49:00;6.78;;;3.60;;
48623;SDS011;34422;45.802;16.114;2023-04-05T00:51:27;6.95;;;3.95;;
48623;SDS011;34422;45.802;16.114;2023-04-05T00:53:55;9.65;;;4.28;;
48623;SDS011;34422;45.802;16.114;2023-04-05T00:56:22;7.13;;;4.40;;
48623;SDS011;34422;45.802;16.114;2023-04-05T00:58:49;10.20;;;4.05;;
48623;SDS011;34422;45.802;16.114;2023-04-05T01:01:19;7.40;;;3.95;;
48623;SDS011;34422;45.802;16.114;2023-04-05T01:03:51;6.70;;;3.67;;
48623;SDS011;34422;45.802;16.114;2023-04-05T01:09:27;9.10;;;4.05;;
48623;SDS011;34422;45.802;16.114;2023-04-05T01:11:56;8.90;;;3.58;;
48623;SDS011;34422;45.802;16.114;2023-04-05T01:14:24;6.97;;;3.80;;
48623;SDS011;34422;45.802;16.114;2023-04-05T01:16:51;7.68;;;4.05;;
48623;SDS011;34422;45.802;16.114;2023-04-05T01:19:25;9.65;;;3.80;;
48623;SDS011;34422;45.802;16.114;2023-04-05T01:22:14;7.00;;;3.83;;
48623;SDS011;34422;45.802;16.114;2023-04-05T01:24:48;7.70;;;4.10;;
48623;SDS011;34422;45.802;16.114;2023-04-05T01:30:33;7.45;;;3.60;;
48623;SDS011;34422;45.802;16.114;2023-04-05T01:35:54;7.33;;;4.17;;
48623;SDS011;34422;45.802;16.114;2023-04-05T01:38:27;8.75;;;3.67;;
48623;SDS011;34422;45.802;16.114;2023-04-05T01:40:56;6.70;;;3.55;;
48623;SDS011;34422;45.802;16.114;2023-04-05T01:43:23;6.60;;;3.50;;
48623;SDS011;34422;45.802;16.114;2023-04-05T01:45:49;7.40;;;3.87;;
48623;SDS011;34422;45.802;16.114;2023-04-05T01:48:16;6.72;;;3.42;;
48623;SDS011;34422;45.802;16.114;2023-04-05T01:50:43;6.15;;;3.00;;
48623;SDS011;34422;45.802;16.114;2023-04-05T01:53:09;8.45;;;3.45;;
48623;SDS011;34422;45.802;16.114;2023-04-05T01:55:36;7.13;;;3.92;;
48623;SDS011;34422;45.802;16.114;2023-04-05T01:58:03;8.80;;;4.97;;
48623;SDS011;34422;45.802;16.114;2023-04-05T02:00:30;8.13;;;3.80;;
48623;SDS011;34422;45.802;16.114;2023-04-05T02:02:56;8.30;;;4.07;;
48623;SDS011;34422;45.802;16.114;2023-04-05T02:05:23;9.60;;;3.87;;
48623;SDS011;34422;45.802;16.114;2023-04-05T02:07:50;6.50;;;3.37;;
48623;SDS011;34422;45.802;16.114;2023-04-05T02:10:17;9.43;;;4.20;;
48623;SDS011;34422;45.802;16.114;2023-04-05T02:12:44;6.33;;;3.73;;
48623;SDS011;34422;45.802;16.114;2023-04-05T02:15:10;7.30;;;4.10;;
48623;SDS011;34422;45.802;16.114;2023-04-05T02:17:37;11.50;;;4.40;;
48623;SDS011;34422;45.802;16.114;2023-04-05T02:20:08;8.93;;;4.60;;
48623;SDS011;34422;45.802;16.114;2023-04-05T02:22:37;9.90;;;4.77;;
48623;SDS011;34422;45.802;16.114;2023-04-05T02:25:08;7.87;;;4.67;;
48623;SDS011;34422;45.802;16.114;2023-04-05T02:27:35;8.37;;;4.57;;
48623;SDS011;34422;45.802;16.114;2023-04-05T02:30:02;7.90;;;4.67;;
48623;SDS011;34422;45.802;16.114;2023-04-05T02:32:29;9.20;;;4.40;;
48623;SDS011;34422;45.802;16.114;2023-04-05T02:34:57;7.03;;;4.40;;
48623;SDS011;34422;45.802;16.114;2023-04-05T02:37:24;10.02;;;4.72;;
48623;SDS011;34422;45.802;16.114;2023-04-05T02:39:52;9.00;;;4.80;;
48623;SDS011;34422;45.802;16.114;2023-04-05T02:42:19;9.70;;;5.27;;
48623;SDS011;34422;45.802;16.114;2023-04-05T02:44:46;9.07;;;5.30;;
48623;SDS011;34422;45.802;16.114;2023-04-05T02:47:13;9.73;;;4.93;;
48623;SDS011;34422;45.802;16.114;2023-04-05T02:49:46;9.33;;;4.67;;
48623;SDS011;34422;45.802;16.114;2023-04-05T02:52:14;10.53;;;4.97;;
48623;SDS011;34422;45.802;16.114;2023-04-05T02:54:42;8.30;;;5.50;;
48623;SDS011;34422;45.802;16.114;2023-04-05T02:57:09;10.90;;;6.00;;
48623;SDS011;34422;45.802;16.114;2023-04-05T02:59:37;10.33;;;5.37;;
48623;SDS011;34422;45.802;16.114;2023-04-05T03:02:04;7.57;;;5.13;;
48623;SDS011;34422;45.802;16.114;2023-04-05T03:04:32;9.13;;;5.40;;
48623;SDS011;34422;45.802;16.114;2023-04-05T03:07:00;9.33;;;5.47;;
48623;SDS011;34422;45.802;16.114;2023-04-05T03:09:28;9.97;;;5.30;;
48623;SDS011;34422;45.802;16.114;2023-04-05T03:12:01;8.87;;;5.40;;
48623;SDS011;34422;45.802;16.114;2023-04-05T03:14:29;9.53;;;5.57;;
48623;SDS011;34422;45.802;16.114;2023-04-05T03:16:56;10.63;;;6.00;;
48623;SDS011;34422;45.802;16.114;2023-04-05T03:19:24;9.27;;;4.90;;
48623;SDS011;34422;45.802;16.114;2023-04-05T03:21:51;10.90;;;5.20;;
48623;SDS011;34422;45.802;16.114;2023-04-05T03:24:19;9.80;;;6.63;;
48623;SDS011;34422;45.802;16.114;2023-04-05T03:26:46;8.57;;;5.40;;
48623;SDS011;34422;45.802;16.114;2023-04-05T03:29:13;11.53;;;6.07;;
48623;SDS011;34422;45.802;16.114;2023-04-05T03:31:41;11.33;;;6.40;;
48623;SDS011;34422;45.802;16.114;2023-04-05T03:34:07;14.17;;;5.93;;
48623;SDS011;34422;45.802;16.114;2023-04-05T03:36:34;11.33;;;5.70;;
48623;SDS011;34422;45.802;16.114;2023-04-05T03:39:11;10.27;;;5.63;;
48623;SDS011;34422;45.802;16.114;2023-04-05T03:41:38;9.15;;;5.60;;
48623;SDS011;34422;45.802;16.114;2023-04-05T03:44:06;8.60;;;5.60;;
48623;SDS011;34422;45.802;16.114;2023-04-05T03:46:34;9.40;;;5.63;;
48623;SDS011;34422;45.802;16.114;2023-04-05T03:49:03;11.03;;;5.77;;
48623;SDS011;34422;45.802;16.114;2023-04-05T03:51:30;8.80;;;5.30;;
48623;SDS011;34422;45.802;16.114;2023-04-05T03:53:58;13.13;;;5.70;;
48623;SDS011;34422;45.802;16.114;2023-04-05T03:56:24;8.33;;;5.00;;
48623;SDS011;34422;45.802;16.114;2023-04-05T03:58:52;9.30;;;4.77;;
48623;SDS011;34422;45.802;16.114;2023-04-05T04:01:19;8.63;;;5.00;;
48623;SDS011;34422;45.802;16.114;2023-04-05T04:03:46;11.57;;;4.37;;
48623;SDS011;34422;45.802;16.114;2023-04-05T04:06:12;10.10;;;5.50;;
48623;SDS011;34422;45.802;16.114;2023-04-05T04:08:39;9.57;;;4.63;;
48623;SDS011;34422;45.802;16.114;2023-04-05T04:11:06;10.10;;;5.00;;
48623;SDS011;34422;45.802;16.114;2023-04-05T04:13:33;9.90;;;4.97;;
48623;SDS011;34422;45.802;16.114;2023-04-05T04:16:00;8.77;;;4.90;;
48623;SDS011;34422;45.802;16.114;2023-04-05T04:18:27;9.03;;;4.37;;
48623;SDS011;34422;45.802;16.114;2023-04-05T04:20:53;8.07;;;4.70;;
48623;SDS011;34422;45.802;16.114;2023-04-05T04:23:21;8.83;;;5.10;;
48623;SDS011;34422;45.802;16.114;2023-04-05T04:25:49;14.03;;;7.13;;
48623;SDS011;34422;45.802;16.114;2023-04-05T04:30:46;8.90;;;4.77;;
48623;SDS011;34422;45.802;16.114;2023-04-05T04:33:13;8.73;;;4.50;;
48623;SDS011;34422;45.802;16.114;2023-04-05T04:35:40;9.57;;;5.33;;
48623;SDS011;34422;45.802;16.114;2023-04-05T04:38:07;11.83;;;4.83;;
48623;SDS011;34422;45.802;16.114;2023-04-05T04:40:35;13.33;;;5.73;;
48623;SDS011;34422;45.802;16.114;2023-04-05T04:43:07;9.43;;;5.27;;
48623;SDS011;34422;45.802;16.114;2023-04-05T04:45:47;10.50;;;5.60;;
48623;SDS011;34422;45.802;16.114;2023-04-05T04:48:15;13.13;;;5.47;;
48623;SDS011;34422;45.802;16.114;2023-04-05T04:50:42;10.30;;;5.50;;
48623;SDS011;34422;45.802;16.114;2023-04-05T04:53:11;14.53;;;7.67;;
48623;SDS011;34422;45.802;16.114;2023-04-05T04:55:39;10.80;;;5.23;;
48623;SDS011;34422;45.802;16.114;2023-04-05T04:58:09;10.70;;;6.13;;
48623;SDS011;34422;45.802;16.114;2023-04-05T05:00:38;12.07;;;5.90;;
48623;SDS011;34422;45.802;16.114;2023-04-05T05:03:07;8.13;;;5.53;;
48623;SDS011;34422;45.802;16.114;2023-04-05T05:05:33;11.20;;;5.83;;
48623;SDS011;34422;45.802;16.114;2023-04-05T05:08:00;7.50;;;5.30;;
48623;SDS011;34422;45.802;16.114;2023-04-05T05:10:27;9.10;;;5.13;;
48623;SDS011;34422;45.802;16.114;2023-04-05T05:12:54;13.47;;;6.23;;
48623;SDS011;34422;45.802;16.114;2023-04-05T05:15:20;9.60;;;5.87;;
48623;SDS011;34422;45.802;16.114;2023-04-05T05:17:47;12.73;;;6.33;;
48623;SDS011;34422;45.802;16.114;2023-04-05T05:20:18;10.27;;;5.22;;
48623;SDS011;34422;45.802;16.114;2023-04-05T05:22:44;8.67;;;5.07;;
48623;SDS011;34422;45.802;16.114;2023-04-05T05:25:11;10.50;;;6.80;;
48623;SDS011;34422;45.802;16.114;2023-04-05T05:27:38;9.57;;;5.40;;
48623;SDS011;34422;45.802;16.114;2023-04-05T05:30:06;10.10;;;6.13;;
48623;SDS011;34422;45.802;16.114;2023-04-05T05:32:33;10.60;;;5.60;;
48623;SDS011;34422;45.802;16.114;2023-04-05T05:35:00;8.93;;;5.33;;
48623;SDS011;34422;45.802;16.114;2023-04-05T05:37:30;11.97;;;5.60;;
48623;SDS011;34422;45.802;16.114;2023-04-05T05:39:58;10.77;;;6.43;;
48623;SDS011;34422;45.802;16.114;2023-04-05T05:42:25;10.63;;;6.07;;
48623;SDS011;34422;45.802;16.114;2023-04-05T05:44:55;9.23;;;5.73;;
48623;SDS011;34422;45.802;16.114;2023-04-05T05:47:21;10.93;;;5.50;;
48623;SDS011;34422;45.802;16.114;2023-04-05T05:49:48;9.07;;;5.43;;
48623;SDS011;34422;45.802;16.114;2023-04-05T05:52:15;9.48;;;5.70;;
48623;SDS011;34422;45.802;16.114;2023-04-05T05:54:42;11.30;;;5.93;;
48623;SDS011;34422;45.802;16.114;2023-04-05T05:57:08;10.70;;;5.32;;
48623;SDS011;34422;45.802;16.114;2023-04-05T05:59:35;11.23;;;5.03;;
48623;SDS011;34422;45.802;16.114;2023-04-05T06:02:02;8.75;;;4.97;;
48623;SDS011;34422;45.802;16.114;2023-04-05T06:04:29;10.90;;;5.65;;
48623;SDS011;34422;45.802;16.114;2023-04-05T06:06:56;11.13;;;5.45;;
48623;SDS011;34422;45.802;16.114;2023-04-05T06:09:23;9.60;;;5.30;;
48623;SDS011;34422;45.802;16.114;2023-04-05T06:11:51;11.45;;;5.45;;
48623;SDS011;34422;45.802;16.114;2023-04-05T06:14:18;9.15;;;4.85;;
48623;SDS011;34422;45.802;16.114;2023-04-05T06:16:45;8.98;;;4.90;;
48623;SDS011;34422;45.802;16.114;2023-04-05T06:19:13;9.90;;;5.18;;
48623;SDS011;34422;45.802;16.114;2023-04-05T06:21:40;7.78;;;4.95;;
48623;SDS011;34422;45.802;16.114;2023-04-05T06:24:06;10.90;;;6.22;;
48623;SDS011;34422;45.802;16.114;2023-04-05T06:26:33;11.15;;;5.43;;
48623;SDS011;34422;45.802;16.114;2023-04-05T06:29:00;11.82;;;4.30;;
48623;SDS011;34422;45.802;16.114;2023-04-05T06:31:29;9.25;;;5.50;;
48623;SDS011;34422;45.802;16.114;2023-04-05T06:33:58;13.13;;;6.07;;
48623;SDS011;34422;45.802;16.114;2023-04-05T06:36:24;8.18;;;4.82;;
48623;SDS011;34422;45.802;16.114;2023-04-05T06:38:52;8.68;;;5.15;;
48623;SDS011;34422;45.802;16.114;2023-04-05T06:41:18;14.32;;;5.60;;
48623;SDS011;34422;45.802;16.114;2023-04-05T06:43:45;9.57;;;4.85;;
48623;SDS011;34422;45.802;16.114;2023-04-05T06:46:12;11.15;;;5.63;;
48623;SDS011;34422;45.802;16.114;2023-04-05T06:48:39;7.53;;;4.43;;
48623;SDS011;34422;45.802;16.114;2023-04-05T06:51:07;8.70;;;5.60;;
48623;SDS011;34422;45.802;16.114;2023-04-05T06:53:34;12.05;;;6.80;;
48623;SDS011;34422;45.802;16.114;2023-04-05T06:56:01;14.50;;;8.52;;
48623;SDS011;34422;45.802;16.114;2023-04-05T06:58:28;11.65;;;5.45;;
48623;SDS011;34422;45.802;16.114;2023-04-05T07:00:55;11.32;;;6.18;;
48623;SDS011;34422;45.802;16.114;2023-04-05T07:03:21;12.15;;;5.53;;
48623;SDS011;34422;45.802;16.114;2023-04-05T07:05:52;8.27;;;5.10;;
48623;SDS011;34422;45.802;16.114;2023-04-05T07:08:19;10.68;;;5.82;;
48623;SDS011;34422;45.802;16.114;2023-04-05T07:10:47;9.70;;;5.20;;
48623;SDS011;34422;45.802;16.114;2023-04-05T07:13:14;11.35;;;4.85;;
48623;SDS011;34422;45.802;16.114;2023-04-05T07:15:42;10.07;;;4.93;;
48623;SDS011;34422;45.802;16.114;2023-04-05T07:18:10;9.77;;;5.32;;
48623;SDS011;34422;45.802;16.114;2023-04-05T07:20:38;8.32;;;4.70;;
48623;SDS011;34422;45.802;16.114;2023-04-05T07:23:04;9.05;;;5.28;;
48623;SDS011;34422;45.802;16.114;2023-04-05T07:25:31;11.02;;;5.25;;
48623;SDS011;34422;45.802;16.114;2023-04-05T07:27:58;9.52;;;5.53;;
48623;SDS011;34422;45.802;16.114;2023-04-05T07:30:25;11.20;;;5.05;;
48623;SDS011;34422;45.802;16.114;2023-04-05T07:32:53;9.98;;;5.20;;
48623;SDS011;34422;45.802;16.114;2023-04-05T07:35:19;9.13;;;5.10;;
48623;SDS011;34422;45.802;16.114;2023-04-05T07:37:46;8.18;;;4.55;;
48623;SDS011;34422;45.802;16.114;2023-04-05T07:40:13;12.55;;;4.85;;
48623;SDS011;34422;45.802;16.114;2023-04-05T07:42:39;11.38;;;5.30;;
48623;SDS011;34422;45.802;16.114;2023-04-05T07:45:06;8.55;;;4.85;;
48623;SDS011;34422;45.802;16.114;2023-04-05T07:47:33;9.48;;;4.35;;
48623;SDS011;34422;45.802;16.114;2023-04-05T07:50:01;7.88;;;5.03;;
48623;SDS011;34422;45.802;16.114;2023-04-05T07:52:28;8.25;;;5.00;;
48623;SDS011;34422;45.802;16.114;2023-04-05T07:54:55;11.20;;;5.15;;
48623;SDS011;34422;45.802;16.114;2023-04-05T07:57:22;7.05;;;4.28;;
48623;SDS011;34422;45.802;16.114;2023-04-05T07:59:48;10.23;;;5.05;;
48623;SDS011;34422;45.802;16.114;2023-04-05T08:02:18;10.27;;;4.95;;
48623;SDS011;34422;45.802;16.114;2023-04-05T08:04:45;12.43;;;5.47;;
48623;SDS011;34422;45.802;16.114;2023-04-05T08:07:11;15.43;;;5.70;;
48623;SDS011;34422;45.802;16.114;2023-04-05T08:09:38;11.25;;;5.03;;
48623;SDS011;34422;45.802;16.114;2023-04-05T08:12:05;10.63;;;4.80;;
48623;SDS011;34422;45.802;16.114;2023-04-05T08:14:33;8.27;;;4.25;;
48623;SDS011;34422;45.802;16.114;2023-04-05T08:16:59;10.27;;;4.80;;
48623;SDS011;34422;45.802;16.114;2023-04-05T08:19:26;11.57;;;5.30;;
48623;SDS011;34422;45.802;16.114;2023-04-05T08:21:53;9.35;;;4.63;;
48623;SDS011;34422;45.802;16.114;2023-04-05T08:24:19;8.10;;;4.30;;
48623;SDS011;34422;45.802;16.114;2023-04-05T08:26:46;13.80;;;5.28;;
48623;SDS011;34422;45.802;16.114;2023-04-05T08:29:14;9.98;;;4.10;;
48623;SDS011;34422;45.802;16.114;2023-04-05T08:31:40;17.30;;;5.30;;
48623;SDS011;34422;45.802;16.114;2023-04-05T08:34:07;8.70;;;3.88;;
48623;SDS011;34422;45.802;16.114;2023-04-05T08:36:34;9.43;;;4.53;;
48623;SDS011;34422;45.802;16.114;2023-04-05T08:39:00;10.00;;;5.00;;
48623;SDS011;34422;45.802;16.114;2023-04-05T08:41:31;8.60;;;3.80;;
48623;SDS011;34422;45.802;16.114;2023-04-05T08:44:02;10.50;;;4.93;;
48623;SDS011;34422;45.802;16.114;2023-04-05T08:46:31;10.18;;;5.72;;
48623;SDS011;34422;45.802;16.114;2023-04-05T08:49:03;10.57;;;6.15;;
48623;SDS011;34422;45.802;16.114;2023-04-05T08:51:31;9.32;;;5.15;;
48623;SDS011;34422;45.802;16.114;2023-04-05T08:53:59;17.60;;;6.20;;
48623;SDS011;34422;45.802;16.114;2023-04-05T08:56:33;8.73;;;5.10;;
48623;SDS011;34422;45.802;16.114;2023-04-05T09:01:30;9.32;;;5.05;;
48623;SDS011;34422;45.802;16.114;2023-04-05T09:03:59;9.60;;;5.22;;
48623;SDS011;34422;45.802;16.114;2023-04-05T09:06:27;9.57;;;5.28;;
48623;SDS011;34422;45.802;16.114;2023-04-05T09:08:55;8.70;;;4.95;;
48623;SDS011;34422;45.802;16.114;2023-04-05T09:11:23;10.05;;;5.45;;
48623;SDS011;34422;45.802;16.114;2023-04-05T09:13:50;9.55;;;4.10;;
48623;SDS011;34422;45.802;16.114;2023-04-05T09:16:17;8.50;;;4.78;;
48623;SDS011;34422;45.802;16.114;2023-04-05T09:18:45;9.68;;;4.65;;
48623;SDS011;34422;45.802;16.114;2023-04-05T09:21:12;10.63;;;5.43;;
48623;SDS011;34422;45.802;16.114;2023-04-05T09:23:40;13.20;;;7.25;;
48623;SDS011;34422;45.802;16.114;2023-04-05T09:26:21;8.00;;;4.57;;
48623;SDS011;34422;45.802;16.114;2023-04-05T09:28:50;6.85;;;4.60;;
48623;SDS011;34422;45.802;16.114;2023-04-05T09:31:33;8.93;;;4.28;;
48623;SDS011;34422;45.802;16.114;2023-04-05T09:34:02;10.15;;;4.68;;
48623;SDS011;34422;45.802;16.114;2023-04-05T09:36:34;8.77;;;5.03;;
48623;SDS011;34422;45.802;16.114;2023-04-05T09:39:04;8.20;;;4.15;;
48623;SDS011;34422;45.802;16.114;2023-04-05T09:41:35;7.38;;;3.90;;
48623;SDS011;34422;45.802;16.114;2023-04-05T09:44:02;9.93;;;4.47;;
48623;SDS011;34422;45.802;16.114;2023-04-05T09:46:31;8.27;;;4.35;;
48623;SDS011;34422;45.802;16.114;2023-04-05T09:49:00;12.20;;;5.82;;
48623;SDS011;34422;45.802;16.114;2023-04-05T09:51:32;9.85;;;6.00;;
48623;SDS011;34422;45.802;16.114;2023-04-05T09:54:07;7.60;;;3.42;;
48623;SDS011;34422;45.802;16.114;2023-04-05T09:56:38;7.05;;;4.00;;
48623;SDS011;34422;45.802;16.114;2023-04-05T09:59:09;10.45;;;4.25;;
48623;SDS011;34422;45.802;16.114;2023-04-05T10:01:37;8.65;;;3.63;;
48623;SDS011;34422;45.802;16.114;2023-04-05T10:04:08;10.70;;;4.85;;
48623;SDS011;34422;45.802;16.114;2023-04-05T10:06:36;7.07;;;4.10;;
48623;SDS011;34422;45.802;16.114;2023-04-05T10:09:06;9.65;;;4.38;;
48623;SDS011;34422;45.802;16.114;2023-04-05T10:11:35;6.90;;;4.20;;
48623;SDS011;34422;45.802;16.114;2023-04-05T10:14:04;9.40;;;4.57;;
48623;SDS011;34422;45.802;16.114;2023-04-05T10:16:41;8.95;;;4.13;;
48623;SDS011;34422;45.802;16.114;2023-04-05T10:19:15;7.75;;;4.10;;
48623;SDS011;34422;45.802;16.114;2023-04-05T10:26:58;9.35;;;4.30;;
48623;SDS011;34422;45.802;16.114;2023-04-05T10:29:42;5.93;;;3.33;;
48623;SDS011;34422;45.802;16.114;2023-04-05T10:32:17;6.00;;;3.35;;
48623;SDS011;34422;45.802;16.114;2023-04-05T10:34:56;6.45;;;3.67;;
48623;SDS011;34422;45.802;16.114;2023-04-05T10:37:40;7.15;;;3.00;;
48623;SDS011;34422;45.802;16.114;2023-04-05T10:40:13;7.38;;;3.83;;
48623;SDS011;34422;45.802;16.114;2023-04-05T10:42:45;11.98;;;4.30;;
48623;SDS011;34422;45.802;16.114;2023-04-05T10:45:16;6.05;;;3.20;;
48623;SDS011;34422;45.802;16.114;2023-04-05T10:47:56;9.68;;;4.68;;
48623;SDS011;34422;45.802;16.114;2023-04-05T10:50:24;7.45;;;3.30;;
48623;SDS011;34422;45.802;16.114;2023-04-05T10:52:51;6.45;;;3.03;;
48623;SDS011;34422;45.802;16.114;2023-04-05T10:55:19;10.13;;;3.75;;
48623;SDS011;34422;45.802;16.114;2023-04-05T10:57:47;6.20;;;3.35;;
48623;SDS011;34422;45.802;16.114;2023-04-05T11:00:15;6.57;;;3.70;;
48623;SDS011;34422;45.802;16.114;2023-04-05T11:02:44;7.97;;;3.70;;
48623;SDS011;34422;45.802;16.114;2023-04-05T11:05:27;7.07;;;3.22;;
48623;SDS011;34422;45.802;16.114;2023-04-05T11:07:59;6.65;;;3.35;;
48623;SDS011;34422;45.802;16.114;2023-04-05T11:10:29;6.60;;;3.38;;
48623;SDS011;34422;45.802;16.114;2023-04-05T11:18:00;8.50;;;4.05;;
48623;SDS011;34422;45.802;16.114;2023-04-05T11:23:22;7.90;;;3.38;;
48623;SDS011;34422;45.802;16.114;2023-04-05T11:25:53;9.35;;;3.30;;
48623;SDS011;34422;45.802;16.114;2023-04-05T11:28:44;6.63;;;3.42;;
48623;SDS011;34422;45.802;16.114;2023-04-05T11:31:14;7.10;;;3.15;;
48623;SDS011;34422;45.802;16.114;2023-04-05T11:36:10;5.88;;;3.35;;
48623;SDS011;34422;45.802;16.114;2023-04-05T11:38:38;5.97;;;3.25;;
48623;SDS011;34422;45.802;16.114;2023-04-05T11:41:15;7.53;;;3.35;;
48623;SDS011;34422;45.802;16.114;2023-04-05T11:43:46;8.75;;;3.92;;
48623;SDS011;34422;45.802;16.114;2023-04-05T11:46:14;7.28;;;3.60;;
48623;SDS011;34422;45.802;16.114;2023-04-05T11:48:41;8.93;;;4.00;;
48623;SDS011;34422;45.802;16.114;2023-04-05T11:51:09;7.10;;;4.18;;
48623;SDS011;34422;45.802;16.114;2023-04-05T11:53:36;8.73;;;5.18;;
48623;SDS011;34422;45.802;16.114;2023-04-05T11:56:10;10.20;;;4.88;;
48623;SDS011;34422;45.802;16.114;2023-04-05T11:58:41;9.88;;;5.47;;
48623;SDS011;34422;45.802;16.114;2023-04-05T12:01:08;9.27;;;4.95;;
48623;SDS011;34422;45.802;16.114;2023-04-05T12:03:35;6.53;;;3.72;;
48623;SDS011;34422;45.802;16.114;2023-04-05T12:06:03;9.32;;;4.60;;
48623;SDS011;34422;45.802;16.114;2023-04-05T12:08:38;8.88;;;4.50;;
48623;SDS011;34422;45.802;16.114;2023-04-05T12:11:06;15.07;;;7.72;;
48623;SDS011;34422;45.802;16.114;2023-04-05T12:13:35;8.73;;;3.70;;
48623;SDS011;34422;45.802;16.114;2023-04-05T12:16:03;8.43;;;4.82;;
48623;SDS011;34422;45.802;16.114;2023-04-05T12:18:32;7.40;;;3.45;;
48623;SDS011;34422;45.802;16.114;2023-04-05T12:21:03;7.75;;;3.90;;
48623;SDS011;34422;45.802;16.114;2023-04-05T12:23:32;8.57;;;3.53;;
48623;SDS011;34422;45.802;16.114;2023-04-05T12:26:00;7.45;;;3.53;;
48623;SDS011;34422;45.802;16.114;2023-04-05T12:31:38;7.90;;;4.13;;
48623;SDS011;34422;45.802;16.114;2023-04-05T12:34:06;7.00;;;3.78;;
48623;SDS011;34422;45.802;16.114;2023-04-05T12:36:34;8.13;;;3.72;;
48623;SDS011;34422;45.802;16.114;2023-04-05T12:39:05;8.57;;;3.67;;
48623;SDS011;34422;45.802;16.114;2023-04-05T12:41:35;9.98;;;4.60;;
48623;SDS011;34422;45.802;16.114;2023-04-05T12:44:45;11.02;;;3.80;;
48623;SDS011;34422;45.802;16.114;2023-04-05T12:46:59;7.65;;;3.88;;
48623;SDS011;34422;45.802;16.114;2023-04-05T12:49:36;7.28;;;3.30;;
48623;SDS011;34422;45.802;16.114;2023-04-05T12:52:03;5.72;;;3.17;;
48623;SDS011;34422;45.802;16.114;2023-04-05T12:54:30;7.03;;;3.55;;
48623;SDS011;34422;45.802;16.114;2023-04-05T12:56:57;8.10;;;3.92;;
48623;SDS011;34422;45.802;16.114;2023-04-05T12:59:24;7.90;;;3.80;;
48623;SDS011;34422;45.802;16.114;2023-04-05T13:01:51;10.25;;;3.70;;
48623;SDS011;34422;45.802;16.114;2023-04-05T13:04:18;8.38;;;3.83;;
48623;SDS011;34422;45.802;16.114;2023-04-05T13:06:45;8.27;;;3.97;;
48623;SDS011;34422;45.802;16.114;2023-04-05T13:09:12;6.65;;;3.20;;
48623;SDS011;34422;45.802;16.114;2023-04-05T13:11:39;21.40;;;5.13;;
48623;SDS011;34422;45.802;16.114;2023-04-05T13:14:06;6.28;;;3.50;;
48623;SDS011;34422;45.802;16.114;2023-04-05T13:16:32;7.80;;;3.65;;
48623;SDS011;34422;45.802;16.114;2023-04-05T13:18:59;7.03;;;3.35;;
48623;SDS011;34422;45.802;16.114;2023-04-05T13:21:26;4.95;;;3.05;;
48623;SDS011;34422;45.802;16.114;2023-04-05T13:23:53;7.63;;;3.38;;
48623;SDS011;34422;45.802;16.114;2023-04-05T13:26:19;8.55;;;3.42;;
48623;SDS011;34422;45.802;16.114;2023-04-05T13:28:46;10.20;;;4.97;;
48623;SDS011;34422;45.802;16.114;2023-04-05T13:31:13;7.85;;;3.47;;
48623;SDS011;34422;45.802;16.114;2023-04-05T13:33:39;8.40;;;4.22;;
48623;SDS011;34422;45.802;16.114;2023-04-05T13:36:06;7.63;;;3.92;;
48623;SDS011;34422;45.802;16.114;2023-04-05T13:38:33;7.00;;;3.75;;
48623;SDS011;34422;45.802;16.114;2023-04-05T13:41:00;7.95;;;3.55;;
48623;SDS011;34422;45.802;16.114;2023-04-05T13:43:27;8.82;;;3.67;;
48623;SDS011;34422;45.802;16.114;2023-04-05T13:45:53;8.70;;;4.20;;
48623;SDS011;34422;45.802;16.114;2023-04-05T13:48:20;10.57;;;3.40;;
48623;SDS011;34422;45.802;16.114;2023-04-05T13:50:57;11.45;;;3.53;;
48623;SDS011;34422;45.802;16.114;2023-04-05T13:53:24;8.60;;;4.20;;
48623;SDS011;34422;45.802;16.114;2023-04-05T13:55:51;8.82;;;3.60;;
48623;SDS011;34422;45.802;16.114;2023-04-05T13:58:17;9.23;;;4.57;;
48623;SDS011;34422;45.802;16.114;2023-04-05T14:00:44;7.60;;;3.63;;
48623;SDS011;34422;45.802;16.114;2023-04-05T14:03:11;7.05;;;4.43;;
48623;SDS011;34422;45.802;16.114;2023-04-05T14:05:37;7.65;;;3.28;;
48623;SDS011;34422;45.802;16.114;2023-04-05T14:08:04;6.63;;;3.92;;
48623;SDS011;34422;45.802;16.114;2023-04-05T14:10:31;6.57;;;3.97;;
48623;SDS011;34422;45.802;16.114;2023-04-05T14:12:57;8.23;;;3.67;;
48623;SDS011;34422;45.802;16.114;2023-04-05T14:15:24;9.32;;;4.45;;
48623;SDS011;34422;45.802;16.114;2023-04-05T14:17:52;7.00;;;3.60;;
48623;SDS011;34422;45.802;16.114;2023-04-05T14:20:18;7.32;;;3.85;;
48623;SDS011;34422;45.802;16.114;2023-04-05T14:22:45;10.68;;;4.07;;
48623;SDS011;34422;45.802;16.114;2023-04-05T14:25:12;9.18;;;4.13;;
48623;SDS011;34422;45.802;16.114;2023-04-05T14:27:39;9.98;;;4.35;;
48623;SDS011;34422;45.802;16.114;2023-04-05T14:30:07;7.95;;;4.05;;
48623;SDS011;34422;45.802;16.114;2023-04-05T14:32:35;7.10;;;3.50;;
48623;SDS011;34422;45.802;16.114;2023-04-05T14:35:02;8.38;;;3.70;;
48623;SDS011;34422;45.802;16.114;2023-04-05T14:37:29;7.72;;;3.92;;
48623;SDS011;34422;45.802;16.114;2023-04-05T14:39:56;8.05;;;3.50;;
48623;SDS011;34422;45.802;16.114;2023-04-05T14:42:23;8.10;;;3.70;;
48623;SDS011;34422;45.802;16.114;2023-04-05T14:44:50;7.03;;;3.75;;
48623;SDS011;34422;45.802;16.114;2023-04-05T14:47:17;5.45;;;2.78;;
48623;SDS011;34422;45.802;16.114;2023-04-05T14:49:43;7.47;;;3.45;;
48623;SDS011;34422;45.802;16.114;2023-04-05T14:52:11;7.45;;;3.85;;
48623;SDS011;34422;45.802;16.114;2023-04-05T14:54:38;8.13;;;4.18;;
48623;SDS011;34422;45.802;16.114;2023-04-05T14:57:04;7.07;;;3.08;;
48623;SDS011;34422;45.802;16.114;2023-04-05T14:59:31;6.85;;;3.17;;
48623;SDS011;34422;45.802;16.114;2023-04-05T15:01:58;6.78;;;3.72;;
48623;SDS011;34422;45.802;16.114;2023-04-05T15:04:25;7.68;;;3.30;;
48623;SDS011;34422;45.802;16.114;2023-04-05T15:06:53;6.45;;;3.63;;
48623;SDS011;34422;45.802;16.114;2023-04-05T15:09:20;11.27;;;3.50;;
48623;SDS011;34422;45.802;16.114;2023-04-05T15:11:47;9.30;;;3.10;;